Terminal Aerodrome Forecast
Issued by NWS

Home | Current Version | Previous Version | Text Only | Print | Product List | Glossary On
Versions: 1 2 3 4 5 6 7 8 9 10 11 12
000
FTUS46 KSGX 261735
TAFTRM
TAF
KTRM 261735Z 2618/2718 32011KT P6SM SCT250
     FM271200 30013G22KT P6SM SCT250
      TEMPO 2714/2718 29018G28KT=

USA.gov is the U.S. government's official web portal to all federal, state and local government web resources and services.